createdAt,value
2022-11-05T00:00:14.993Z,81.69
2022-11-05T00:01:34.608Z,81.76
2022-11-05T00:02:54.485Z,81.96
2022-11-05T00:04:14.523Z,81.78
2022-11-05T00:05:35.097Z,82.01
2022-11-05T00:06:54.986Z,81.89
2022-11-05T00:08:16.793Z,81.97
2022-11-05T00:09:32.537Z,81.81
2022-11-05T00:10:37.593Z,81.60
2022-11-05T00:12:08.230Z,81.67
2022-11-05T00:13:29.370Z,81.31
2022-11-05T00:14:49.504Z,81.37
2022-11-05T00:16:09.377Z,81.89
2022-11-05T00:17:10.828Z,82.87
2022-11-05T00:18:12.303Z,83.10
2022-11-05T00:19:14.900Z,83.21
2022-11-05T00:20:16.742Z,82.89
2022-11-05T00:21:36.697Z,83.02
2022-11-05T00:22:57.199Z,82.87
2022-11-05T00:24:21.736Z,82.92
2022-11-05T00:25:25.569Z,82.64
2022-11-05T00:26:27.001Z,82.65
2022-11-05T00:27:28.542Z,82.49
2022-11-05T00:28:30.540Z,82.16
2022-11-05T00:29:32.143Z,82.41
2022-11-05T00:30:33.578Z,82.57
2022-11-05T00:31:35.086Z,82.42
2022-11-05T00:32:36.641Z,81.94
2022-11-05T00:33:39.344Z,82.03
2022-11-05T00:34:40.783Z,82.33
2022-11-05T00:35:42.786Z,81.98
2022-11-05T00:36:44.235Z,81.97
2022-11-05T00:37:50.085Z,82.07
2022-11-05T00:38:52.068Z,81.87
2022-11-05T00:39:53.584Z,81.70
2022-11-05T00:40:55.354Z,82.08
2022-11-05T00:42:15.364Z,81.53
2022-11-05T00:43:35.200Z,81.14
2022-11-05T00:44:55.140Z,81.76
2022-11-05T00:45:56.937Z,81.67
2022-11-05T00:47:18.381Z,81.38
2022-11-05T00:48:38.260Z,81.67
2022-11-05T00:49:39.687Z,81.67
2022-11-05T00:50:41.191Z,81.89
2022-11-05T00:51:42.970Z,81.75
2022-11-05T00:52:56.137Z,81.43
2022-11-05T00:53:57.631Z,81.53
2022-11-05T00:54:59.087Z,81.60
2022-11-05T00:56:01.394Z,81.41
2022-11-05T00:57:04.783Z,81.24
2022-11-05T00:58:15.677Z,81.64
2022-11-05T00:59:17.134Z,81.61
2022-11-05T01:00:18.974Z,81.41
2022-11-05T01:01:20.839Z,81.75
2022-11-05T01:02:22.502Z,81.34
2022-11-05T01:03:27.468Z,81.34
2022-11-05T01:04:28.876Z,81.66
2022-11-05T01:05:31.935Z,81.88
2022-11-05T01:06:33.345Z,82.21
2022-11-05T01:07:34.805Z,81.81
2022-11-05T01:08:36.752Z,82.11
2022-11-05T01:09:38.169Z,81.94
2022-11-05T01:10:44.433Z,82.50
2022-11-05T01:11:46.366Z,82.46
2022-11-05T01:12:48.347Z,81.98
2022-11-05T01:13:49.836Z,82.33
2022-11-05T01:14:51.368Z,82.24
2022-11-05T01:15:52.945Z,82.01
2022-11-05T01:16:54.422Z,81.87
2022-11-05T01:17:55.889Z,82.41
2022-11-05T01:18:57.358Z,81.84
2022-11-05T01:19:58.787Z,82.09
2022-11-05T01:21:00.610Z,81.68
2022-11-05T01:22:02.019Z,81.52
2022-11-05T01:23:04.664Z,81.71
2022-11-05T01:24:10.623Z,81.73
2022-11-05T01:25:12.394Z,81.96
2022-11-05T01:26:13.892Z,81.46
2022-11-05T01:27:15.320Z,81.71
2022-11-05T01:28:16.878Z,81.80
2022-11-05T01:29:18.527Z,81.85
2022-11-05T01:30:20.781Z,81.68
2022-11-05T01:31:23.049Z,81.97
2022-11-05T01:32:24.516Z,81.55
2022-11-05T01:33:26.008Z,81.89
2022-11-05T01:34:27.508Z,82.49
2022-11-05T01:35:29.947Z,82.15
2022-11-05T01:36:31.359Z,81.70
2022-11-05T01:37:34.257Z,81.96
2022-11-05T01:38:35.709Z,81.89
2022-11-05T01:39:37.290Z,81.82
2022-11-05T01:40:43.009Z,82.05
2022-11-05T01:41:44.515Z,82.02
2022-11-05T01:42:46.875Z,81.84
2022-11-05T01:43:54.618Z,81.79
2022-11-05T01:45:11.294Z,82.16
2022-11-05T01:46:12.980Z,81.94
2022-11-05T01:47:22.078Z,81.81
2022-11-05T01:48:32.326Z,82.18
2022-11-05T01:49:34.517Z,81.92
2022-11-05T01:50:49.625Z,82.25
2022-11-05T01:51:51.719Z,82.02
2022-11-05T01:52:57.985Z,82.09
2022-11-05T01:54:08.170Z,81.67
2022-11-05T01:55:10.861Z,82.25
2022-11-05T01:56:22.891Z,81.97
2022-11-05T01:57:24.778Z,82.18
2022-11-05T01:58:32.635Z,82.15
2022-11-05T01:59:43.213Z,82.22
2022-11-05T02:00:45.462Z,81.77
2022-11-05T02:01:47.204Z,81.98
2022-11-05T02:02:48.977Z,81.82
2022-11-05T02:03:53.513Z,81.66
2022-11-05T02:04:59.982Z,81.82
2022-11-05T02:06:03.880Z,81.89
2022-11-05T02:07:07.634Z,82.12
2022-11-05T02:08:20.631Z,81.54
2022-11-05T02:09:36.611Z,81.60
2022-11-05T02:10:38.751Z,82.18
2022-11-05T02:11:40.708Z,81.91
2022-11-05T02:12:46.316Z,81.71
2022-11-05T02:13:49.323Z,81.92
2022-11-05T02:14:50.680Z,81.84
2022-11-05T02:15:57.647Z,81.80
2022-11-05T02:17:26.115Z,82.11
2022-11-05T02:18:41.060Z,82.10
2022-11-05T02:20:24.776Z,82.29
2022-11-05T02:21:38.997Z,82.28
2022-11-05T02:22:56.064Z,81.87
2022-11-05T02:24:09.467Z,82.08
2022-11-05T02:25:30.052Z,82.35
2022-11-05T02:27:09.070Z,82.01
2022-11-05T02:28:55.293Z,82.20
2022-11-05T02:30:04.004Z,82.65
2022-11-05T02:31:27.860Z,82.40
2022-11-05T02:32:35.572Z,82.62
2022-11-05T02:33:56.518Z,82.62
2022-11-05T02:35:18.324Z,82.54
2022-11-05T02:36:45.195Z,82.65
2022-11-05T02:37:54.315Z,82.27
2022-11-05T02:39:18.777Z,82.48
2022-11-05T02:40:23.128Z,82.16
2022-11-05T02:41:34.471Z,82.13
2022-11-05T02:43:17.716Z,82.18
2022-11-05T02:44:41.445Z,82.60
2022-11-05T02:46:00.496Z,82.22
2022-11-05T02:47:26.650Z,82.46
2022-11-05T02:48:49.064Z,82.49
2022-11-05T02:50:20.730Z,82.41
2022-11-05T02:51:40.875Z,82.90
2022-11-05T02:52:59.274Z,82.75
2022-11-05T02:54:35.980Z,82.97
2022-11-05T02:55:42.616Z,82.87
2022-11-05T02:56:48.646Z,82.30
2022-11-05T02:57:50.163Z,82.52
2022-11-05T02:58:51.601Z,82.89
2022-11-05T03:00:07.866Z,82.34
2022-11-05T03:01:11.552Z,82.27
2022-11-05T03:02:13.175Z,82.54
2022-11-05T03:03:18.689Z,82.48
2022-11-05T03:04:22.635Z,81.95
2022-11-05T03:05:33.952Z,82.03
2022-11-05T03:06:54.344Z,81.98
2022-11-05T03:08:03.924Z,81.73
2022-11-05T03:09:20.328Z,81.66
2022-11-05T03:10:45.642Z,81.91
2022-11-05T03:12:18.533Z,82.13
2022-11-05T03:13:39.033Z,82.28
2022-11-05T03:14:51.512Z,81.84
2022-11-05T03:16:16.941Z,82.22
2022-11-05T03:17:36.955Z,82.16
2022-11-05T03:19:00.816Z,82.59
2022-11-05T03:20:17.293Z,82.04
2022-11-05T03:21:30.665Z,82.30
2022-11-05T03:22:41.726Z,82.30
2022-11-05T03:24:10.465Z,81.94
2022-11-05T03:25:20.567Z,82.46
2022-11-05T03:26:32.015Z,82.37
2022-11-05T03:27:37.433Z,82.43
2022-11-05T03:28:43.081Z,82.25
2022-11-05T03:29:48.947Z,81.96
2022-11-05T03:30:54.853Z,82.04
2022-11-05T03:31:59.842Z,81.93
2022-11-05T03:33:06.845Z,82.46
2022-11-05T03:34:11.891Z,82.06
2022-11-05T03:35:20.622Z,82.19
2022-11-05T03:36:28.627Z,82.45
2022-11-05T03:37:34.390Z,82.29
2022-11-05T03:38:41.632Z,81.99
2022-11-05T03:39:48.481Z,82.20
2022-11-05T03:40:53.448Z,81.73
2022-11-05T03:41:57.796Z,82.65
2022-11-05T03:43:03.714Z,82.51
2022-11-05T03:44:08.129Z,82.09
2022-11-05T03:45:15.798Z,82.26
2022-11-05T03:46:26.581Z,82.33
2022-11-05T03:47:32.706Z,82.34
2022-11-05T03:48:41.208Z,82.34
2022-11-05T03:50:04.245Z,82.38
2022-11-05T03:51:17.808Z,82.43
2022-11-05T03:52:24.634Z,82.43
2022-11-05T03:53:29.909Z,82.48
2022-11-05T03:54:32.669Z,82.26
2022-11-05T03:55:42.087Z,82.61
2022-11-05T03:57:01.133Z,82.42
2022-11-05T03:58:04.895Z,82.13
2022-11-05T03:59:09.161Z,82.29
2022-11-05T04:00:11.438Z,82.37
2022-11-05T04:01:13.170Z,82.52
2022-11-05T04:02:18.003Z,82.49
2022-11-05T04:03:19.582Z,82.30
2022-11-05T04:04:21.325Z,82.48
2022-11-05T04:05:23.313Z,82.53
2022-11-05T04:06:45.816Z,82.27
2022-11-05T04:08:08.764Z,82.83
2022-11-05T04:09:33.165Z,82.76
2022-11-05T04:10:53.213Z,82.72
2022-11-05T04:12:13.460Z,82.72
2022-11-05T04:13:26.782Z,82.77
2022-11-05T04:14:28.204Z,83.15
2022-11-05T04:15:30.027Z,82.92
2022-11-05T04:16:50.482Z,83.20
2022-11-05T04:17:52.411Z,83.08
2022-11-05T04:18:53.821Z,83.14
2022-11-05T04:20:15.215Z,83.14
2022-11-05T04:21:35.362Z,82.80
2022-11-05T04:22:55.549Z,83.06
2022-11-05T04:24:09.289Z,83.43
2022-11-05T04:25:11.546Z,83.43
2022-11-05T04:26:13.032Z,83.08
2022-11-05T04:27:14.908Z,83.18
2022-11-05T04:28:17.057Z,83.03
2022-11-05T04:29:37.228Z,82.95
2022-11-05T04:30:39.096Z,83.12
2022-11-05T04:31:40.549Z,83.12
2022-11-05T04:32:42.296Z,82.89
2022-11-05T04:33:43.695Z,82.71
2022-11-05T04:34:45.103Z,82.89
2022-11-05T04:35:48.438Z,83.16
2022-11-05T04:36:51.421Z,83.01
2022-11-05T04:37:53.466Z,83.33
2022-11-05T04:38:54.881Z,83.05
2022-11-05T04:39:56.304Z,83.24
2022-11-05T04:41:13.181Z,82.97
2022-11-05T04:42:14.612Z,82.84
2022-11-05T04:43:19.057Z,83.21
2022-11-05T04:44:20.768Z,83.36
2022-11-05T04:45:23.721Z,83.27
2022-11-05T04:46:25.058Z,82.96
2022-11-05T04:47:26.456Z,83.73
2022-11-05T04:48:28.182Z,83.82
2022-11-05T04:49:29.586Z,83.90
2022-11-05T04:50:32.026Z,82.97
2022-11-05T04:51:33.440Z,83.33
2022-11-05T04:52:34.866Z,83.46
2022-11-05T04:53:36.410Z,83.25
2022-11-05T04:54:38.322Z,83.05
2022-11-05T04:55:39.740Z,83.01
2022-11-05T04:56:41.204Z,82.99
2022-11-05T04:57:42.762Z,82.95
2022-11-05T04:58:44.851Z,82.79
2022-11-05T04:59:48.768Z,82.81
2022-11-05T05:00:50.461Z,82.79
2022-11-05T05:01:53.074Z,82.89
2022-11-05T05:02:54.618Z,82.56
2022-11-05T05:03:56.105Z,82.73
2022-11-05T05:04:57.744Z,82.82
2022-11-05T05:06:03.693Z,82.73
2022-11-05T05:07:05.877Z,82.48
2022-11-05T05:08:07.596Z,82.92
2022-11-05T05:09:09.040Z,82.47
2022-11-05T05:10:11.091Z,82.78
2022-11-05T05:11:15.052Z,82.67
2022-11-05T05:12:16.601Z,82.59
2022-11-05T05:13:18.033Z,82.41
2022-11-05T05:14:19.818Z,82.34
2022-11-05T05:15:21.227Z,82.75
2022-11-05T05:16:25.171Z,82.65
2022-11-05T05:17:26.690Z,82.63
2022-11-05T05:18:29.087Z,82.61
2022-11-05T05:19:30.678Z,82.74
2022-11-05T05:20:50.430Z,82.55
2022-11-05T05:21:52.183Z,82.71
2022-11-05T05:22:54.820Z,82.39
2022-11-05T05:23:56.814Z,82.62
2022-11-05T05:24:59.885Z,82.52
2022-11-05T05:26:01.333Z,82.57
2022-11-05T05:27:02.771Z,82.54
2022-11-05T05:28:04.346Z,82.58
2022-11-05T05:29:06.696Z,82.82
2022-11-05T05:30:09.014Z,82.88
2022-11-05T05:31:10.546Z,82.96
2022-11-05T05:32:11.970Z,82.71
2022-11-05T05:33:13.512Z,83.13
2022-11-05T05:34:15.612Z,83.14
2022-11-05T05:35:17.562Z,83.08
2022-11-05T05:36:18.973Z,82.95
2022-11-05T05:37:20.468Z,82.69
2022-11-05T05:38:21.891Z,82.63
2022-11-05T05:39:23.370Z,82.67
2022-11-05T05:40:24.822Z,82.66
2022-11-05T05:41:26.429Z,82.44
2022-11-05T05:42:27.864Z,82.36
2022-11-05T05:43:30.702Z,82.60
2022-11-05T05:44:32.522Z,82.24
2022-11-05T05:45:35.833Z,82.63
2022-11-05T05:46:37.429Z,82.44
2022-11-05T05:47:38.889Z,82.70
2022-11-05T05:48:40.870Z,82.62
2022-11-05T05:49:42.689Z,82.90
2022-11-05T05:50:44.097Z,82.59
2022-11-05T05:51:45.610Z,82.27
2022-11-05T05:52:47.114Z,82.27
2022-11-05T05:53:48.521Z,82.08
2022-11-05T05:54:50.327Z,82.21
2022-11-05T05:55:54.053Z,82.27
2022-11-05T05:56:55.589Z,82.34
2022-11-05T05:57:57.022Z,82.59
2022-11-05T05:58:58.469Z,82.53
2022-11-05T06:00:01.877Z,82.87
2022-11-05T06:01:12.929Z,82.83
2022-11-05T06:02:17.304Z,82.44
2022-11-05T06:03:18.865Z,82.42
2022-11-05T06:04:20.711Z,82.56
2022-11-05T06:05:22.581Z,82.84
2022-11-05T06:06:24.028Z,82.70
2022-11-05T06:07:25.466Z,82.57
2022-11-05T06:08:27.013Z,82.28
2022-11-05T06:09:28.809Z,82.23
2022-11-05T06:10:30.638Z,82.40
2022-11-05T06:11:32.219Z,82.08
2022-11-05T06:12:33.698Z,82.36
2022-11-05T06:13:36.664Z,82.35
2022-11-05T06:14:38.018Z,82.34
2022-11-05T06:15:39.690Z,82.16
2022-11-05T06:16:41.177Z,82.42
2022-11-05T06:17:45.439Z,82.47
2022-11-05T06:18:47.197Z,82.62
2022-11-05T06:19:48.662Z,82.48
2022-11-05T06:20:50.401Z,82.59
2022-11-05T06:21:51.816Z,82.80
2022-11-05T06:22:57.486Z,82.68
2022-11-05T06:24:01.058Z,82.53
2022-11-05T06:25:02.551Z,82.56
2022-11-05T06:26:10.107Z,82.60
2022-11-05T06:27:11.566Z,82.29
2022-11-05T06:28:12.983Z,82.62
2022-11-05T06:29:14.389Z,82.49
2022-11-05T06:30:17.530Z,82.49
2022-11-05T06:31:19.285Z,82.95
2022-11-05T06:32:20.685Z,82.75
2022-11-05T06:33:22.230Z,82.81
2022-11-05T06:34:23.638Z,82.65
2022-11-05T06:35:25.055Z,82.62
2022-11-05T06:36:26.820Z,82.60
2022-11-05T06:37:28.249Z,83.13
2022-11-05T06:38:32.716Z,83.61
2022-11-05T06:39:34.893Z,84.12
2022-11-05T06:40:36.300Z,84.63
2022-11-05T06:41:56.933Z,84.91
2022-11-05T06:42:59.567Z,85.25
2022-11-05T06:44:01.121Z,85.76
2022-11-05T06:45:02.955Z,84.96
2022-11-05T06:46:05.030Z,84.54
2022-11-05T06:47:06.745Z,84.54
2022-11-05T06:48:08.291Z,84.36
2022-11-05T06:49:09.716Z,84.10
2022-11-05T06:50:11.668Z,83.68
2022-11-05T06:51:13.196Z,83.96
2022-11-05T06:52:16.001Z,83.52
2022-11-05T06:53:17.881Z,83.88
2022-11-05T06:54:19.367Z,83.52
2022-11-05T06:55:20.845Z,83.39
2022-11-05T06:56:22.600Z,83.44
2022-11-05T06:57:24.098Z,83.30
2022-11-05T06:58:26.771Z,82.72
2022-11-05T06:59:28.184Z,82.83
2022-11-05T07:00:30.090Z,82.75
2022-11-05T07:01:32.166Z,82.89
2022-11-05T07:02:33.774Z,82.79
2022-11-05T07:03:36.571Z,82.72
2022-11-05T07:04:38.118Z,82.61
2022-11-05T07:05:43.924Z,82.89
2022-11-05T07:06:45.376Z,82.91
2022-11-05T07:07:46.824Z,82.42
2022-11-05T07:08:48.270Z,82.44
2022-11-05T07:09:52.376Z,82.58
2022-11-05T07:10:53.809Z,82.47
2022-11-05T07:11:55.788Z,82.85
2022-11-05T07:12:57.279Z,82.92
2022-11-05T07:13:58.933Z,82.53
2022-11-05T07:15:00.462Z,82.50
2022-11-05T07:16:01.881Z,82.50
2022-11-05T07:17:03.754Z,82.70
2022-11-05T07:18:07.474Z,82.60
2022-11-05T07:19:09.194Z,82.81
2022-11-05T07:20:11.086Z,82.68
2022-11-05T07:21:12.521Z,82.73
2022-11-05T07:22:13.937Z,82.26
2022-11-05T07:23:16.234Z,82.40
2022-11-05T07:24:17.756Z,82.64
2022-11-05T07:25:19.208Z,82.52
2022-11-05T07:26:21.026Z,82.55
2022-11-05T07:27:22.468Z,82.55
2022-11-05T07:28:24.046Z,82.32
2022-11-05T07:29:25.487Z,82.32
2022-11-05T07:30:27.228Z,82.34
2022-11-05T07:31:28.979Z,82.51
2022-11-05T07:32:30.400Z,82.50
2022-11-05T07:33:36.318Z,82.81
2022-11-05T07:34:38.214Z,82.74
2022-11-05T07:35:39.656Z,82.46
2022-11-05T07:36:41.478Z,82.62
2022-11-05T07:37:44.639Z,82.42
2022-11-05T07:38:46.062Z,82.58
2022-11-05T07:39:47.531Z,82.65
2022-11-05T07:40:48.969Z,82.72
2022-11-05T07:41:52.469Z,82.82
2022-11-05T07:42:59.022Z,82.81
2022-11-05T07:44:00.486Z,82.75
2022-11-05T07:45:01.937Z,82.33
2022-11-05T07:46:03.411Z,82.72
2022-11-05T07:47:05.189Z,82.15
2022-11-05T07:48:07.165Z,81.97
2022-11-05T07:49:08.653Z,82.11
2022-11-05T07:50:10.376Z,82.05
2022-11-05T07:51:11.792Z,81.91
2022-11-05T07:52:13.215Z,81.60
2022-11-05T07:53:14.993Z,81.92
2022-11-05T07:54:16.679Z,82.15
2022-11-05T07:55:19.587Z,81.92
2022-11-05T07:56:21.043Z,82.25
2022-11-05T07:57:22.618Z,82.29
2022-11-05T07:58:24.260Z,82.38
2022-11-05T07:59:25.668Z,82.12
2022-11-05T08:00:28.677Z,82.14
2022-11-05T08:01:30.105Z,82.71
2022-11-05T08:02:32.037Z,82.23
2022-11-05T08:03:34.587Z,82.38
2022-11-05T08:04:36.137Z,82.43
2022-11-05T08:05:40.420Z,82.62
2022-11-05T08:06:41.889Z,82.65
2022-11-05T08:07:43.377Z,82.82
2022-11-05T08:08:44.836Z,82.51
2022-11-05T08:09:46.270Z,82.59
2022-11-05T08:10:47.755Z,82.24
2022-11-05T08:11:52.236Z,82.41
2022-11-05T08:12:55.819Z,82.21
2022-11-05T08:13:57.276Z,82.12
2022-11-05T08:14:58.721Z,82.27
2022-11-05T08:16:01.633Z,82.21
2022-11-05T08:17:03.042Z,81.84
2022-11-05T08:18:06.028Z,81.38
2022-11-05T08:19:07.473Z,81.22
2022-11-05T08:20:09.833Z,81.27
2022-11-05T08:21:11.271Z,81.19
2022-11-05T08:22:12.729Z,81.39
2022-11-05T08:23:14.932Z,81.67
2022-11-05T08:24:16.576Z,81.51
2022-11-05T08:25:18.074Z,80.78
2022-11-05T08:26:20.332Z,80.69
2022-11-05T08:27:22.139Z,80.56
2022-11-05T08:28:25.330Z,80.25
2022-11-05T08:29:26.806Z,80.49
2022-11-05T08:30:29.268Z,80.37
2022-11-05T08:31:31.908Z,80.13
2022-11-05T08:32:33.764Z,80.38
2022-11-05T08:33:35.229Z,80.30
2022-11-05T08:34:36.662Z,80.65
2022-11-05T08:35:39.540Z,81.00
2022-11-05T08:36:43.434Z,80.98
2022-11-05T08:37:45.302Z,81.22
2022-11-05T08:38:46.877Z,81.03
2022-11-05T08:39:48.442Z,81.02
2022-11-05T08:40:58.006Z,81.05
2022-11-05T08:41:59.543Z,80.85
2022-11-05T08:43:04.957Z,81.19
2022-11-05T08:44:08.753Z,81.06
2022-11-05T08:45:10.280Z,81.11
2022-11-05T08:46:11.782Z,81.11
2022-11-05T08:47:13.225Z,81.02
2022-11-05T08:48:17.278Z,80.55
2022-11-05T08:49:18.706Z,80.60
2022-11-05T08:50:20.251Z,80.74
2022-11-05T08:51:21.692Z,80.41
2022-11-05T08:52:23.453Z,80.55
2022-11-05T08:53:24.954Z,80.59
2022-11-05T08:54:26.389Z,80.66
2022-11-05T08:55:28.219Z,80.64
2022-11-05T08:56:29.663Z,80.57
2022-11-05T08:57:31.117Z,80.86
2022-11-05T08:58:33.351Z,80.69
2022-11-05T08:59:34.783Z,80.37
2022-11-05T09:00:37.525Z,81.01
2022-11-05T09:01:39.184Z,80.82
2022-11-05T09:02:41.764Z,80.80
2022-11-05T09:03:43.232Z,81.01
2022-11-05T09:04:44.820Z,80.65
2022-11-05T09:05:46.748Z,80.21
2022-11-05T09:06:48.227Z,79.76
2022-11-05T09:07:49.771Z,79.70
2022-11-05T09:08:51.405Z,79.64
2022-11-05T09:09:52.855Z,79.63
2022-11-05T09:10:54.385Z,79.63
2022-11-05T09:12:11.847Z,79.94
2022-11-05T09:13:18.848Z,80.15
2022-11-05T09:14:21.434Z,78.97
2022-11-05T09:15:24.430Z,79.36
2022-11-05T09:16:26.107Z,79.39
2022-11-05T09:17:27.628Z,78.74
2022-11-05T09:18:29.452Z,78.31
2022-11-05T09:19:30.893Z,79.00
2022-11-05T09:20:33.357Z,79.00
2022-11-05T09:21:34.799Z,78.86
2022-11-05T09:22:42.074Z,78.93
2022-11-05T09:23:46.232Z,78.85
2022-11-05T09:24:47.705Z,78.82
2022-11-05T09:25:49.172Z,78.91
2022-11-05T09:26:50.634Z,78.70
2022-11-05T09:27:52.070Z,78.88
2022-11-05T09:28:54.405Z,79.30
2022-11-05T09:29:55.871Z,79.68
2022-11-05T09:30:57.284Z,79.47
2022-11-05T09:31:58.687Z,79.45
2022-11-05T09:33:00.510Z,79.29
2022-11-05T09:34:01.982Z,79.09
2022-11-05T09:35:04.154Z,79.14
2022-11-05T09:36:06.466Z,78.85
2022-11-05T09:37:07.971Z,79.10
2022-11-05T09:38:10.112Z,79.02
2022-11-05T09:39:11.511Z,77.94
2022-11-05T09:40:17.861Z,77.95
2022-11-05T09:41:29.335Z,77.33
2022-11-05T09:42:39.871Z,76.71
2022-11-05T09:44:07.971Z,76.93
2022-11-05T09:45:22.190Z,77.12
2022-11-05T09:46:26.385Z,77.06
2022-11-05T09:47:37.030Z,76.82
2022-11-05T09:48:41.153Z,76.36
2022-11-05T09:49:48.107Z,76.24
2022-11-05T09:50:52.233Z,76.17
2022-11-05T09:51:57.360Z,76.00
2022-11-05T09:52:58.972Z,75.75
2022-11-05T09:54:01.267Z,75.83
2022-11-05T09:55:06.463Z,75.28
2022-11-05T09:56:25.114Z,75.24
2022-11-05T09:57:52.864Z,75.44
2022-11-05T09:59:08.253Z,75.66
2022-11-05T10:00:16.569Z,75.59
2022-11-05T10:01:24.311Z,75.55
2022-11-05T10:02:34.470Z,75.29
2022-11-05T10:03:46.524Z,75.31
2022-11-05T10:04:52.897Z,75.46
2022-11-05T10:06:09.660Z,75.72
2022-11-05T10:07:16.881Z,75.52
2022-11-05T10:08:32.803Z,75.29
2022-11-05T10:09:45.241Z,75.32
2022-11-05T10:10:54.173Z,75.68
2022-11-05T10:12:22.008Z,76.07
2022-11-05T10:13:32.525Z,75.82
2022-11-05T10:14:40.478Z,75.97
2022-11-05T10:15:53.009Z,75.10
2022-11-05T10:17:33.756Z,75.23
2022-11-05T10:18:42.108Z,75.14
2022-11-05T10:19:49.708Z,75.45
2022-11-05T10:20:51.290Z,75.29
2022-11-05T10:22:16.246Z,75.43
2022-11-05T10:23:20.300Z,75.62
2022-11-05T10:24:22.316Z,75.80
2022-11-05T10:25:27.382Z,75.91
2022-11-05T10:26:29.877Z,75.93
2022-11-05T10:27:36.438Z,76.08
2022-11-05T10:28:38.552Z,76.39
2022-11-05T10:29:42.798Z,76.23
2022-11-05T10:30:46.887Z,75.93
2022-11-05T10:31:48.890Z,76.09
2022-11-05T10:32:55.086Z,76.60
2022-11-05T10:34:01.449Z,76.61
2022-11-05T10:35:07.204Z,77.06
2022-11-05T10:36:18.931Z,76.69
2022-11-05T10:37:23.293Z,76.96
2022-11-05T10:38:24.810Z,76.72
2022-11-05T10:39:28.074Z,76.11
2022-11-05T10:40:37.393Z,76.09
2022-11-05T10:42:03.294Z,75.59
2022-11-05T10:43:17.284Z,75.36
2022-11-05T10:44:32.523Z,74.95
2022-11-05T10:45:46.650Z,74.65
2022-11-05T10:46:56.729Z,74.67
2022-11-05T10:48:02.882Z,74.73
2022-11-05T10:49:39.763Z,74.64
2022-11-05T10:50:41.554Z,74.28
2022-11-05T10:51:43.496Z,73.89
2022-11-05T10:52:58.176Z,74.06
2022-11-05T10:54:12.837Z,73.60
2022-11-05T10:55:18.902Z,73.55
2022-11-05T10:56:33.142Z,72.83
2022-11-05T10:57:40.085Z,72.79
2022-11-05T10:58:55.137Z,72.77
2022-11-05T11:00:15.526Z,72.88
2022-11-05T11:01:25.292Z,72.22
2022-11-05T11:02:28.263Z,73.12
2022-11-05T11:03:32.704Z,72.96
2022-11-05T11:04:37.817Z,73.32
2022-11-05T11:05:40.381Z,73.51
2022-11-05T11:06:49.899Z,73.76
2022-11-05T11:08:02.499Z,74.54
2022-11-05T11:09:08.528Z,74.53
2022-11-05T11:10:21.875Z,74.81
2022-11-05T11:11:32.844Z,74.55
2022-11-05T11:12:42.921Z,74.73
2022-11-05T11:14:13.240Z,74.43
2022-11-05T11:15:29.033Z,74.35
2022-11-05T11:16:42.653Z,74.08
2022-11-05T11:17:44.222Z,73.90
2022-11-05T11:18:45.735Z,73.67
2022-11-05T11:19:47.216Z,73.37
2022-11-05T11:20:48.668Z,73.40
2022-11-05T11:22:05.278Z,73.97
2022-11-05T11:23:15.516Z,74.11
2022-11-05T11:24:23.269Z,74.30
2022-11-05T11:25:31.875Z,74.05
2022-11-05T11:26:37.177Z,74.18
2022-11-05T11:27:38.675Z,73.65
2022-11-05T11:28:45.943Z,74.04
2022-11-05T11:29:56.975Z,74.19
2022-11-05T11:31:04.751Z,73.88
2022-11-05T11:32:14.289Z,74.02
2022-11-05T11:33:21.496Z,73.79
2022-11-05T11:34:33.970Z,73.33
2022-11-05T11:35:38.416Z,73.22
2022-11-05T11:36:45.441Z,72.86
2022-11-05T11:37:47.614Z,72.72
2022-11-05T11:38:49.071Z,71.54
2022-11-05T11:40:14.403Z,71.53
2022-11-05T11:41:26.866Z,72.04
2022-11-05T11:42:32.825Z,71.94
2022-11-05T11:43:37.292Z,72.16
2022-11-05T11:44:46.579Z,71.97
2022-11-05T11:45:52.133Z,72.30
2022-11-05T11:47:02.006Z,72.19
2022-11-05T11:48:07.984Z,71.61
2022-11-05T11:49:42.690Z,72.29
2022-11-05T11:50:47.101Z,73.32
2022-11-05T11:51:50.282Z,73.01
2022-11-05T11:52:52.271Z,72.49
2022-11-05T11:53:57.574Z,72.72
2022-11-05T11:55:11.475Z,72.62
2022-11-05T11:56:12.869Z,73.08
2022-11-05T11:57:26.198Z,72.75
2022-11-05T11:58:40.595Z,72.37
2022-11-05T12:00:07.210Z,72.03
2022-11-05T12:01:09.154Z,72.01
2022-11-05T12:02:48.369Z,71.66
2022-11-05T12:04:28.543Z,72.33
2022-11-05T12:05:34.937Z,72.37
2022-11-05T12:06:44.410Z,71.77
2022-11-05T12:08:03.296Z,71.00
2022-11-05T12:09:06.926Z,71.04
2022-11-05T12:10:46.200Z,71.32
2022-11-05T12:11:52.366Z,71.15
2022-11-05T12:13:14.732Z,71.24
2022-11-05T12:14:46.074Z,71.19
2022-11-05T12:15:57.183Z,70.24
2022-11-05T12:17:20.284Z,70.48
2022-11-05T12:18:31.798Z,69.45
2022-11-05T12:19:46.102Z,69.87
2022-11-05T12:21:12.464Z,70.18
2022-11-05T12:22:37.042Z,70.86
2022-11-05T12:23:58.742Z,71.28
2022-11-05T12:25:51.067Z,72.17
2022-11-05T12:27:29.812Z,71.63
2022-11-05T12:29:04.552Z,70.97
2022-11-05T12:30:10.198Z,71.36
2022-11-05T12:31:23.095Z,71.34
2022-11-05T12:32:55.018Z,70.66
2022-11-05T12:34:24.937Z,70.48
2022-11-05T12:36:06.747Z,70.82
2022-11-05T12:37:33.870Z,70.09
2022-11-05T12:38:48.660Z,70.93
2022-11-05T12:40:06.432Z,71.97
2022-11-05T12:41:43.725Z,71.53
2022-11-05T12:43:23.728Z,70.26
2022-11-05T12:44:44.816Z,71.24
2022-11-05T12:46:19.005Z,71.32
2022-11-05T12:48:11.824Z,71.13
2022-11-05T12:49:53.339Z,70.70
2022-11-05T12:51:22.500Z,71.16
2022-11-05T12:53:01.098Z,69.74
2022-11-05T12:54:23.242Z,69.95
2022-11-05T12:55:27.914Z,71.20
2022-11-05T12:56:41.526Z,71.09
2022-11-05T12:57:47.624Z,71.97
2022-11-05T12:58:59.972Z,71.51
2022-11-05T13:00:19.408Z,71.62
2022-11-05T13:01:33.082Z,71.53
2022-11-05T13:02:43.933Z,71.14
2022-11-05T13:03:48.665Z,71.60
2022-11-05T13:05:05.504Z,70.97
2022-11-05T13:06:40.631Z,71.26
2022-11-05T13:07:52.515Z,70.74
2022-11-05T13:09:00.501Z,70.65
2022-11-05T13:10:25.617Z,70.33
2022-11-05T13:11:33.305Z,70.51
2022-11-05T13:12:40.024Z,70.60
2022-11-05T13:13:50.841Z,69.71
2022-11-05T13:14:57.608Z,70.48
2022-11-05T13:16:06.846Z,70.35
2022-11-05T13:17:16.348Z,70.75
2022-11-05T13:18:24.020Z,71.00
2022-11-05T13:19:51.436Z,71.80
2022-11-05T13:20:55.621Z,71.69
2022-11-05T13:22:08.044Z,71.62
2022-11-05T13:23:19.958Z,71.54
2022-11-05T13:24:30.390Z,72.20
2022-11-05T13:25:37.593Z,72.17
2022-11-05T13:26:46.006Z,72.54
2022-11-05T13:28:04.971Z,72.37
2022-11-05T13:29:28.669Z,72.11
2022-11-05T13:30:52.792Z,72.25
2022-11-05T13:32:04.652Z,72.41
2022-11-05T13:33:15.555Z,72.63
2022-11-05T13:34:16.980Z,72.31
2022-11-05T13:35:26.169Z,71.96
2022-11-05T13:36:52.655Z,71.60
2022-11-05T13:38:17.915Z,71.20
2022-11-05T13:39:24.424Z,71.82
2022-11-05T13:40:57.741Z,71.46
2022-11-05T13:42:17.937Z,71.76
2022-11-05T13:43:34.310Z,71.83
2022-11-05T13:45:11.490Z,71.35
2022-11-05T13:46:25.435Z,71.12
2022-11-05T13:48:04.854Z,71.41
2022-11-05T13:49:16.565Z,71.24
2022-11-05T13:50:21.005Z,71.50
2022-11-05T13:51:50.394Z,71.88
2022-11-05T13:53:06.576Z,71.61
2022-11-05T13:54:19.764Z,71.61
2022-11-05T13:55:31.868Z,71.85
2022-11-05T13:56:51.300Z,72.47
2022-11-05T13:58:36.201Z,72.09
2022-11-05T13:59:49.121Z,72.29
2022-11-05T14:01:18.468Z,72.00
2022-11-05T14:02:24.925Z,71.57
2022-11-05T14:03:27.133Z,71.33
2022-11-05T14:04:35.788Z,70.45
2022-11-05T14:05:40.397Z,69.85
2022-11-05T14:06:42.271Z,70.16
2022-11-05T14:07:47.140Z,70.21
2022-11-05T14:08:49.083Z,70.18
2022-11-05T14:09:58.247Z,70.43
2022-11-05T14:11:04.923Z,70.63
2022-11-05T14:12:14.847Z,70.13
2022-11-05T14:13:19.565Z,70.40
2022-11-05T14:14:26.591Z,70.43
2022-11-05T14:15:29.973Z,70.41
2022-11-05T14:16:52.514Z,70.57
2022-11-05T14:17:58.515Z,70.45
2022-11-05T14:19:18.822Z,70.14
2022-11-05T14:20:25.821Z,70.48
2022-11-05T14:21:27.301Z,70.49
2022-11-05T14:22:31.881Z,70.46
2022-11-05T14:23:41.616Z,70.76
2022-11-05T14:24:44.287Z,70.81
2022-11-05T14:25:45.650Z,71.10
2022-11-05T14:27:02.277Z,70.71
2022-11-05T14:28:35.853Z,70.58
2022-11-05T14:29:41.380Z,70.60
2022-11-05T14:30:47.763Z,71.06
2022-11-05T14:32:08.210Z,71.22
2022-11-05T14:33:16.792Z,71.06
2022-11-05T14:34:41.619Z,71.08
2022-11-05T14:35:43.325Z,71.53